Time;durP1;ratioP1;P1;durP2;ratioP2;P2;SDS_P1;SDS_P2;PMS_P1;PMS_P2;Temp;Humidity;BMP_temperature;BMP_pressure;BME280_temperature;BME280_humidity;BME280_pressure;Samples;Min_cycle;Max_cycle;Signal;HPM_P1;HPM_P2
2022/02/03 02:44:24;;;;;;;13.65;4.35;;;;;;;3.42;82.45;99174.13;4936098;29;20074;-88
2022/02/03 02:46:52;;;;;;;17.45;4.57;;;;;;;3.14;82.08;99128.53;4933663;29;20043;-88
2022/02/03 02:49:28;;;;;;;16.30;5.43;;;;;;;2.71;82.58;99065.38;4930953;29;20207;-89
2022/02/03 02:52:08;;;;;;;14.32;4.63;;;;;;;3.26;82.66;99137.50;4933166;29;20032;-88
2022/02/03 03:35:53;;;;;;;18.08;6.97;;;;;;;3.31;83.33;99074.44;4933093;29;20130;-87
2022/02/03 03:38:22;;;;;;;18.75;6.63;;;;;;;3.44;83.09;99099.06;4933423;29;20020;-87
2022/02/03 03:40:54;;;;;;;20.08;6.03;;;;;;;3.40;82.95;99076.72;4927143;29;20114;-87
2022/02/03 03:43:28;;;;;;;15.65;5.70;;;;;;;3.52;83.54;99098.88;4932996;29;20046;-87
2022/02/03 03:45:54;;;;;;;19.90;6.43;;;;;;;3.16;83.19;99023.66;4933396;29;20035;-87
2022/02/03 03:48:26;;;;;;;18.20;7.00;;;;;;;3.41;83.74;99072.25;4933273;29;20044;-87
2022/02/03 03:50:55;;;;;;;17.33;7.25;;;;;;;3.32;83.19;99042.59;4930240;29;20023;-87
2022/02/03 03:53:34;;;;;;;19.13;8.32;;;;;;;3.75;83.20;99106.50;4943075;29;20035;-87
2022/02/03 03:56:20;;;;;;;16.08;7.32;;;;;;;3.47;83.32;99059.06;4939935;29;20019;-87
2022/02/03 04:30:10;;;;;;;19.15;7.47;;;;;;;3.03;83.90;98977.78;4915189;29;20408;-88
2022/02/03 04:56:50;;;;;;;22.45;7.70;;;;;;;3.92;83.33;99057.59;4930291;29;21860;-88
2022/02/03 05:02:27;;;;;;;24.42;8.35;;;;;;;3.33;83.81;98956.38;4937152;29;20105;-88
2022/02/03 05:06:00;;;;;;;21.75;8.18;;;;;;;3.31;83.56;98967.13;4934750;29;20070;-88
2022/02/03 05:09:05;;;;;;;16.95;8.38;;;;;;;4.01;83.73;99058.19;4906681;29;20043;-88
2022/02/03 05:16:39;;;;;;;14.30;7.75;;;;;;;3.40;83.77;98952.75;4873523;29;20131;-87
2022/02/03 05:50:40;;;;;;;18.50;10.60;;;;;;;3.46;83.14;98904.44;4937071;29;20024;-88
2022/02/03 06:04:54;;;;;;;18.33;10.90;;;;;;;4.09;83.64;98990.16;4936064;29;20115;-89
2022/02/03 06:07:42;;;;;;;21.75;10.52;;;;;;;3.83;84.08;98934.72;4934799;29;20552;-88
2022/02/03 06:13:07;;;;;;;21.75;13.45;;;;;;;3.66;84.21;98907.91;4930980;29;20028;-88
2022/02/03 06:15:46;;;;;;;18.83;11.77;;;;;;;3.87;83.90;98941.19;4937424;29;20119;-87
2022/02/03 06:29:04;;;;;;;27.13;12.85;;;;;;;3.69;84.66;98891.66;4927793;29;20054;-88
2022/02/03 06:31:33;;;;;;;27.58;12.52;;;;;;;4.20;84.38;98973.69;4935271;29;20039;-87
2022/02/03 06:33:58;;;;;;;24.10;11.90;;;;;;;4.15;84.35;98970.06;4935692;29;20047;-87
2022/02/03 06:36:24;;;;;;;23.65;12.07;;;;;;;3.72;84.47;98891.25;4935764;29;20392;-86
2022/02/03 06:39:10;;;;;;;26.48;11.50;;;;;;;3.85;84.19;98906.28;4917331;29;20409;-86
2022/02/03 06:41:36;;;;;;;24.13;12.25;;;;;;;4.08;83.97;98937.56;4933537;29;20035;-87
2022/02/03 06:44:05;;;;;;;21.70;11.93;;;;;;;4.26;84.71;98967.59;4933404;29;20058;-88
2022/02/03 06:46:32;;;;;;;17.55;11.13;;;;;;;3.97;84.79;98925.78;4917451;29;20032;-87
2022/02/03 06:49:10;;;;;;;22.17;11.75;;;;;;;4.22;84.41;98955.00;4935335;29;20473;-87
2022/02/03 06:51:41;;;;;;;23.98;11.15;;;;;;;4.25;85.15;98954.59;4945561;29;20035;-87
2022/02/03 06:58:18;;;;;;;;;;;;;;;;;;;;;
2022/02/03 07:03:28;;;;;;;24.98;11.50;;;;;;;3.83;84.72;98881.91;4936536;29;20030;-88
2022/02/03 07:06:07;;;;;;;22.42;11.80;;;;;;;3.78;85.01;98871.97;4932824;29;20058;-89
2022/02/03 07:08:36;;;;;;;18.00;11.32;;;;;;;3.86;84.80;98880.69;4916562;29;20036;-88
2022/02/03 07:11:04;;;;;;;22.25;11.63;;;;;;;3.77;84.93;98859.78;4928134;29;20028;-89
2022/02/03 07:13:34;;;;;;;23.58;11.73;;;;;;;3.95;84.87;98890.03;4935461;29;20054;-88
2022/02/03 07:16:02;;;;;;;20.83;11.10;;;;;;;3.91;84.70;98873.78;4926823;29;20052;-88
2022/02/03 07:18:55;;;;;;;20.48;11.93;;;;;;;4.40;85.13;98945.44;4930899;29;20031;-89
2022/02/03 07:21:48;;;;;;;24.13;13.10;;;;;;;3.83;85.34;98849.41;4934026;29;20568;-88
2022/02/03 07:24:25;;;;;;;22.15;10.85;;;;;;;4.57;85.09;98972.22;4934765;29;20032;-89
2022/02/03 07:28:02;;;;;;;;;;;;;;;;;;;;;
2022/02/03 07:31:12;;;;;;;20.38;11.60;;;;;;;4.02;85.32;98888.19;4940392;28;20031;-90
2022/02/03 07:34:26;;;;;;;17.55;10.50;;;;;;;4.43;86.04;98950.28;4897971;29;20404;-89
2022/02/03 07:37:05;;;;;;;22.20;11.45;;;;;;;4.36;85.64;98938.13;4931389;28;20028;-88
2022/02/03 07:39:35;;;;;;;19.52;12.15;;;;;;;4.61;85.03;98984.00;4925264;29;20031;-89
2022/02/03 07:42:23;;;;;;;18.10;11.45;;;;;;;3.98;86.17;98877.22;4926654;29;20038;-89
2022/02/03 07:44:49;;;;;;;19.92;10.93;;;;;;;4.62;85.30;98972.41;4921208;29;20078;-88
2022/02/03 07:50:30;;;;;;;18.50;10.75;;;;;;;4.13;85.85;98885.72;4930210;29;20089;-89
2022/02/03 07:53:11;;;;;;;18.17;12.23;;;;;;;4.11;85.49;98885.13;4945120;29;20039;-88
2022/02/03 07:56:02;;;;;;;21.77;12.30;;;;;;;3.99;85.68;98864.84;4940666;29;20035;-89
2022/02/03 07:58:27;;;;;;;20.50;11.15;;;;;;;4.61;85.91;98956.78;4929433;29;20103;-89
2022/02/03 08:01:11;;;;;;;17.35;10.63;;;;;;;4.19;85.86;98870.91;4943762;29;20039;-88
2022/02/03 08:03:43;;;;;;;20.17;12.45;;;;;;;4.35;86.46;98891.56;4934109;29;20396;-89
2022/02/03 08:16:45;;;;;;;21.25;13.18;;;;;;;4.27;86.03;98873.31;4951169;28;20297;-90
2022/02/03 08:27:36;;;;;;;25.98;13.02;;;;;;;4.21;86.15;98853.00;4868948;29;20302;-89
2022/02/03 08:37:04;;;;;;;20.75;12.88;;;;;;;4.90;87.50;98945.69;4857060;29;20041;-89
2022/02/03 08:43:32;;;;;;;;;;;;;;;;;;;;;
2022/02/03 16:55:00;;;;;;;5.15;4.63;;;;;;;6.26;86.57;98446.78;4846036;29;20401;-87
2022/02/03 16:57:26;;;;;;;7.97;4.22;;;;;;;6.31;86.73;98460.94;4840429;29;20389;-86
2022/02/03 16:59:58;;;;;;;5.30;4.80;;;;;;;6.00;86.77;98408.31;4824444;29;20034;-87
2022/02/03 17:02:30;;;;;;;8.43;6.05;;;;;;;5.98;86.55;98421.75;4843254;29;20121;-88
2022/02/03 17:04:56;;;;;;;8.75;6.03;;;;;;;6.14;86.27;98430.88;4839350;29;20533;-88
2022/02/03 17:07:22;;;;;;;7.00;6.25;;;;;;;5.49;86.27;98318.09;4836959;29;20116;-88
2022/02/03 17:09:51;;;;;;;7.07;5.68;;;;;;;5.45;86.58;98323.03;4824858;29;20120;-88
2022/02/03 17:12:23;;;;;;;7.35;6.10;;;;;;;5.93;86.34;98399.66;4842085;29;20029;-88
2022/02/03 17:14:52;;;;;;;5.90;5.35;;;;;;;5.68;86.24;98343.44;4857565;29;20037;-87
2022/02/03 17:17:20;;;;;;;8.95;5.50;;;;;;;6.42;86.15;98460.13;4842917;29;20079;-87
2022/02/03 17:19:49;;;;;;;7.70;5.57;;;;;;;5.54;86.10;98326.97;4844572;29;20072;-88
2022/02/03 17:22:47;;;;;;;;;;;;;;;;;;;;;
2022/02/03 17:28:11;;;;;;;5.82;5.13;;;;;;;6.40;86.37;98469.38;4841827;29;20042;-88
2022/02/03 17:30:44;;;;;;;6.90;5.50;;;;;;;5.98;86.31;98408.53;4827161;29;20053;-87
2022/02/03 17:52:54;;;;;;;8.75;6.30;;;;;;;6.29;86.28;98448.97;4838958;29;20049;-86
2022/02/03 18:08:58;;;;;;;16.65;9.93;;;;;;;5.85;86.14;98395.50;4840687;29;20090;-87
2022/02/03 18:52:21;;;;;;;23.75;14.23;;;;;;;5.44;85.43;98341.81;4818247;29;20403;-87
2022/02/03 18:55:08;;;;;;;17.73;13.02;;;;;;;5.90;86.13;98405.41;4833528;29;20045;-87
2022/02/03 18:57:42;;;;;;;23.08;13.55;;;;;;;5.68;86.34;98381.28;4839546;29;20041;-85
2022/02/03 19:09:29;;;;;;;18.73;12.98;;;;;;;4.94;85.49;98283.13;4842988;29;20045;-88
2022/02/03 20:09:17;;;;;;;14.02;10.00;;;;;;;5.59;85.52;98382.66;4839652;29;20606;-87
2022/02/03 20:11:43;;;;;;;13.52;9.75;;;;;;;5.15;85.13;98317.00;4839526;29;20037;-87
2022/02/03 20:14:12;;;;;;;16.65;10.27;;;;;;;5.52;85.45;98381.97;4839218;29;20086;-86
2022/02/03 20:16:42;;;;;;;15.50;9.90;;;;;;;5.85;85.88;98427.28;4838892;29;20030;-87
2022/02/03 20:19:08;;;;;;;13.55;10.38;;;;;;;5.59;85.32;98393.25;4839238;29;20030;-88
2022/02/03 20:21:35;;;;;;;13.63;9.13;;;;;;;5.96;85.44;98441.59;4824087;29;20058;-87
2022/02/03 20:24:04;;;;;;;12.23;9.07;;;;;;;5.10;85.02;98303.66;4839471;29;20403;-87
2022/02/03 20:26:30;;;;;;;11.68;8.98;;;;;;;5.51;85.68;98376.88;4828160;29;20078;-87
2022/02/03 20:28:55;;;;;;;13.25;9.25;;;;;;;5.72;85.35;98416.84;4831609;29;20124;-87
2022/02/03 20:31:20;;;;;;;11.73;8.75;;;;;;;5.19;85.38;98328.75;4854270;29;20093;-88
2022/02/03 20:33:46;;;;;;;12.25;8.90;;;;;;;5.00;85.22;98292.81;4839100;29;20030;-88
2022/02/03 20:36:14;;;;;;;10.38;8.05;;;;;;;5.53;84.93;98375.63;4838718;29;20037;-88
2022/02/03 20:38:40;;;;;;;12.75;9.20;;;;;;;5.11;85.12;98306.06;4844733;29;20026;-88
2022/02/03 20:55:00;;;;;;;7.90;6.35;;;;;;;5.86;84.94;98417.50;4848684;29;20037;-89
2022/02/03 20:58:05;;;;;;;8.82;6.78;;;;;;;5.59;85.50;98381.88;4866139;29;20041;-88
2022/02/03 21:06:09;;;;;;;;;;;;;;;;;;;;;
2022/02/03 21:08:22;;;;;;;9.07;6.57;;;;;;;4.74;85.64;98262.25;4808100;29;20494;-87
2022/02/03 21:11:12;;;;;;;7.53;6.28;;;;;;;4.73;85.05;98259.84;4835453;29;20162;-88
2022/02/03 21:17:09;;;;;;;7.57;5.68;;;;;;;4.59;85.27;98256.59;4843532;29;20042;-86
2022/02/03 21:19:37;;;;;;;6.68;5.53;;;;;;;5.53;85.15;98391.50;4841259;29;20045;-87
2022/02/03 21:22:02;;;;;;;7.43;5.78;;;;;;;5.04;85.13;98317.78;4855532;29;20055;-88
2022/02/03 21:24:31;;;;;;;5.47;4.93;;;;;;;5.16;85.17;98339.75;4848385;29;20042;-87
2022/02/03 21:27:16;;;;;;;;;;;;;;;;;;;;;
2022/02/03 21:33:57;;;;;;;7.55;5.75;;;;;;;5.30;85.20;98370.28;4833238;29;20049;-87
2022/02/03 21:36:56;;;;;;;;;;;;;;;;;;;;;
2022/02/03 21:39:38;;;;;;;7.70;5.60;;;;;;;4.68;84.61;98273.75;4842031;29;20037;-87
2022/02/03 21:42:10;;;;;;;7.07;5.10;;;;;;;5.34;85.63;98379.38;4845510;29;20034;-87
2022/02/03 21:44:46;;;;;;;6.68;5.32;;;;;;;5.75;84.77;98442.91;4838446;29;21622;-87
2022/02/03 21:48:21;;;;;;;;;;;;;;;;;;;;;
2022/02/03 21:51:10;;;;;;;7.30;5.45;;;;;;;4.91;85.40;98328.53;4841633;29;20077;-86
2022/02/03 21:53:45;;;;;;;6.85;4.88;;;;;;;4.59;85.07;98269.03;4856882;29;20061;-87
2022/02/03 22:00:34;;;;;;;;;;;;;;;;;;;;;
2022/02/03 22:03:12;;;;;;;7.57;4.95;;;;;;;5.28;85.10;98375.00;4820607;29;20041;-87
2022/02/03 22:05:56;;;;;;;5.45;4.95;;;;;;;4.58;84.93;98270.84;4839381;29;20038;-86
2022/02/03 22:08:25;;;;;;;7.32;5.55;;;;;;;5.03;85.29;98338.13;4857120;29;20513;-88
2022/02/03 22:10:51;;;;;;;6.72;5.10;;;;;;;5.72;85.74;98451.28;4841659;29;20048;-86
2022/02/03 22:13:16;;;;;;;7.40;5.70;;;;;;;4.64;85.45;98282.34;4825467;29;20042;-87
2022/02/03 22:15:45;;;;;;;6.40;5.63;;;;;;;5.23;85.45;98362.47;4842340;29;20022;-87
2022/02/03 22:18:15;;;;;;;7.15;5.20;;;;;;;4.71;84.89;98291.81;4826274;29;20042;-87
2022/02/03 22:21:03;;;;;;;6.00;4.80;;;;;;;4.90;85.11;98309.22;4842173;29;20499;-87
2022/02/03 22:52:50;;;;;;;7.32;5.60;;;;;;;5.56;84.96;98414.88;4856694;29;20060;-88
2022/02/03 22:55:15;;;;;;;7.15;5.47;;;;;;;5.67;84.76;98426.53;4828309;29;20041;-88
2022/02/03 22:57:45;;;;;;;7.18;5.88;;;;;;;5.48;84.75;98396.69;4840730;29;20052;-89
2022/02/03 23:00:17;;;;;;;7.20;5.18;;;;;;;5.56;85.18;98406.13;4858789;29;20097;-89
2022/02/03 23:02:42;;;;;;;7.70;5.35;;;;;;;5.69;85.06;98435.06;4826164;29;20064;-89
2022/02/03 23:05:09;;;;;;;5.70;4.50;;;;;;;5.42;84.85;98399.44;4851689;29;20018;-88
2022/02/03 23:10:28;;;;;;;7.53;5.45;;;;;;;5.68;84.88;98428.16;4843390;29;20761;-89
2022/02/03 23:13:10;;;;;;;6.70;4.93;;;;;;;5.48;85.19;98396.69;4834031;29;20040;-88
2022/02/03 23:18:23;;;;;;;5.70;5.07;;;;;;;5.31;84.97;98377.19;4822937;29;20084;-89
2022/02/03 23:21:13;;;;;;;7.40;5.00;;;;;;;5.48;85.27;98399.34;4824836;29;20125;-88
2022/02/03 23:23:33;;;;;;;6.18;4.90;;;;;;;5.32;85.33;98386.75;4834381;29;20046;-88
2022/02/03 23:26:00;;;;;;;6.97;5.13;;;;;;;5.36;84.95;98387.91;4824731;29;20046;-89
2022/02/03 23:28:31;;;;;;;7.03;5.43;;;;;;;5.29;85.07;98384.53;4839772;29;20112;-89
2022/02/03 23:30:57;;;;;;;6.65;4.75;;;;;;;5.51;84.98;98417.41;4815833;29;20042;-89
2022/02/03 23:33:23;;;;;;;8.45;5.90;;;;;;;5.52;85.19;98423.50;4837980;29;20034;-89
2022/02/03 23:35:49;;;;;;;6.90;4.70;;;;;;;5.21;85.20;98376.94;4839394;29;20022;-89
